CYBQ

Details ICAO CYBQ (XTL)
Name Tadoule Lake
Region Canada
Timezone America/Winnipeg (UTC-6.0)
Plans Departing 7
Arriving 12
Stats Elevation 902 ft / 275 m (AMSL)
Location 58.706269° -98.512850°
Runways 1
Magnetic Variation 2.988° E
Sunrise 2017-12-18 15:23:57 UTC / 2017-12-18 09:23:57 Local
Sunset 2017-12-18 21:40:20 UTC / 2017-12-18 15:40:20 Local
Advertisement - Login to hide

Runways

ID Width Length Bearing (true) Bearing (mag) Surface Threshold Offset Overrun Length
07 164 ft / 50 m 3,971 ft / 1,210 m 72.58° 69.59° Dirt 0 ft / 0 m 0 ft / 0 m
25 164 ft / 50 m 3,971 ft / 1,210 m 252.60° 249.61° Dirt 0 ft / 0 m 0 ft / 0 m

Map

Weather


0- 5 10 15 20 25 30 35+ Temperature / ° C

Clouds and Precipitation
Forecast for 2017-12-18 12:00 UTC. Updated 2 hours ago

Ground ~20,000 ft ~40,000 ft Winds

METAR

CYBQ 181200Z AUTO 03006KT 9SM -SN SCT045 OVC095 M16/M18 A2904 RMK SLP863

TAF

Not found
Warning: Do not use this data for real-world aviation or navigation. No guarantee of current accuracy is given.